Pocahontas — D5PJ2 — position and weather

sailwx.info

Track history (hours):
 
Tides and Currents Weather Stations Pressure Air Temp Water Temp Dewpoint Dewpoint Depression Visibility Wind Speed Wind Dir Waves Ship Positions

Pocahontas

Last reported at 2018-Jun-16 19:51 UTC. Time now 2018-Jun-24 18:55 UTC.
Position N 27°04' W 015°47'.

Length 161 m; draft 7.3 m.

Type: Cargo ship. MMSI: 636018353.

Date/timePositionNaut miles runAvg speedWind from/ knotsBaromVisibWave heightAir tempDewpointWater temp
2018-Jun-16 19:51N 27°04' W 015°47'514.6
2018-Jun-16 19:30N 27°08' W 015°45'714.5
2018-Jun-16 19:00N 27°15' W 015°41'714.5
2018-Jun-16 18:30N 27°21' W 015°37'815.0
2018-Jun-16 18:00N 27°28' W 015°32'1614.6
2018-Jun-16 16:53N 27°42' W 015°23'514.3
2018-Jun-16 16:31N 27°46' W 015°20'714.5
2018-Jun-16 16:00N 27°53' W 015°18'815.2
2018-Jun-16 15:30N 28°01' W 015°18'714.3
2018-Jun-16 14:59N 28°07' W 015°23'2 4.4
2018-Jun-16 14:27N 28°08' W 015°25'0 0.0
2018-Jun-16 13:57N 28°08' W 015°25'0 0.0
2018-Jun-16 13:29N 28°08' W 015°25'0 0.0
2018-Jun-16 13:00N 28°08' W 015°25'0 0.0
2018-Jun-16 12:30N 28°08' W 015°25'0 0.0
2018-Jun-16 12:00N 28°08' W 015°25'0 0.0
2018-Jun-16 11:28N 28°08' W 015°25'1 1.7
2018-Jun-16 11:00N 28°07' W 015°25'3 6.0
2018-Jun-16 10:30N 28°09' W 015°22'510.3
2018-Jun-16 10:00N 28°14' W 015°19'510.1
2018-Jun-16 09:30N 28°18' W 015°17'611.6
2018-Jun-16 09:01N 28°23' W 015°14'814.5
2018-Jun-16 08:29N 28°30' W 015°11'714.5
2018-Jun-16 08:00N 28°37' W 015°07'814.8
2018-Jun-16 07:30N 28°43' W 015°03'714.8
2018-Jun-16 07:00N 28°50' W 014°60'714.9
2018-Jun-16 06:30N 28°57' W 014°56'714.7
2018-Jun-16 06:00N 29°03' W 014°52'714.4
2018-Jun-16 05:30N 29°10' W 014°49'714.3
2018-Jun-16 04:59N 29°17' W 014°45'714.3
2018-Jun-16 04:28N 29°23' W 014°42'614.0
2018-Jun-16 04:00N 29°29' W 014°39'914.3
2018-Jun-16 03:22N 29°37' W 014°34'614.6
2018-Jun-16 02:56N 29°43' W 014°31'1114.4
2018-Jun-16 02:09N 29°53' W 014°25'48710.9
2018-Jun-14 05:25N 37°13' W 010°14'613.5
2018-Jun-14 05:00N 37°18' W 010°11'713.4
2018-Jun-14 04:30N 37°24' W 010°07'713.6
2018-Jun-14 03:57N 37°31' W 010°03'2013.9
2018-Jun-14 02:31N 37°50' W 009°53'613.7
2018-Jun-14 02:03N 37°55' W 009°50'113.6
2018-Jun-14 01:59N 37°56' W 009°49'713.3
2018-Jun-14 01:29N 38°01' W 009°45'713.9
2018-Jun-14 01:00N 38°07' W 009°40'714.0
2018-Jun-14 00:30N 38°13' W 009°36'714.1
2018-Jun-14 00:00N 38°20' W 009°33'713.9
2018-Jun-13 23:31N 38°26' W 009°29'714.2
2018-Jun-13 23:01N 38°33' W 009°25'713.6
2018-Jun-13 22:30N 38°39' W 009°21'611.7
2018-Jun-13 22:00N 38°41' W 009°14'5 9.9
2018-Jun-13 21:30N 38°42' W 009°08'1 1.1
2018-Jun-13 20:21N 38°43' W 009°07'0 0.0
2018-Jun-13 20:00N 38°43' W 009°07'0 0.0
2018-Jun-13 19:30N 38°43' W 009°07'0 0.0
2018-Jun-13 19:00N 38°43' W 009°07'0 0.0
2018-Jun-13 18:30N 38°43' W 009°07'0 0.0
2018-Jun-13 18:00N 38°43' W 009°07'0 0.0
2018-Jun-13 17:30N 38°43' W 009°07'0 0.0
2018-Jun-13 17:00N 38°43' W 009°07'0 0.0
2018-Jun-13 16:30N 38°43' W 009°07'0 0.0
2018-Jun-13 16:00N 38°43' W 009°07'0 0.0
2018-Jun-13 15:30N 38°43' W 009°07'0 0.0
2018-Jun-13 15:00N 38°43' W 009°07'0 0.0
2018-Jun-13 14:30N 38°43' W 009°07'0 0.0
2018-Jun-13 14:00N 38°43' W 009°07'0 0.0
2018-Jun-13 13:30N 38°43' W 009°07'0 0.0
2018-Jun-13 12:59N 38°43' W 009°07'0 0.0
2018-Jun-13 12:30N 38°43' W 009°07'0 0.0
2018-Jun-13 12:00N 38°43' W 009°07'0 0.0
2018-Jun-13 11:18N 38°43' W 009°07'0 0.0
2018-Jun-13 10:57N 38°43' W 009°07'0 0.0
2018-Jun-13 10:30N 38°43' W 009°07'0 0.0
2018-Jun-13 10:00N 38°43' W 009°07'0 0.0
2018-Jun-13 09:30N 38°43' W 009°07'0 0.0
2018-Jun-13 09:00N 38°43' W 009°07'0 0.0
2018-Jun-13 08:29N 38°43' W 009°07'0 0.0
2018-Jun-13 07:59N 38°43' W 009°07'0 0.1
2018-Jun-13 07:30N 38°43' W 009°07'0 0.5
2018-Jun-13 07:00N 38°43' W 009°07'2 4.0
2018-Jun-13 06:30N 38°42' W 009°09'4 7.8
2018-Jun-13 06:00N 38°41' W 009°14'3 6.5
2018-Jun-13 05:30N 38°41' W 009°18'5 9.6
2018-Jun-13 05:00N 38°37' W 009°22'714.1
2018-Jun-13 04:30N 38°36' W 009°31'816.1
2018-Jun-13 04:00N 38°36' W 009°42'816.1
2018-Jun-13 03:30N 38°35' W 009°52'815.7
2018-Jun-13 02:59N 38°36' W 010°02'916.8
2018-Jun-13 02:26N 38°45' W 010°05'817.0
2018-Jun-13 01:57N 38°53' W 010°04'917.1
2018-Jun-13 01:26N 39°01' W 010°00'717.1
2018-Jun-13 01:00N 39°08' W 009°57'12416.6
2018-Jun-12 17:32N 41°01' W 008°48'017.2
2018-Jun-12 17:30N 41°01' W 008°48'815.4
2018-Jun-12 17:01N 41°08' W 008°43'4 7.0
2018-Jun-12 16:30N 41°11' W 008°42'0 0.0
2018-Jun-12 16:00N 41°11' W 008°42'0 0.0
2018-Jun-12 15:30N 41°11' W 008°42'0 0.0
2018-Jun-12 15:00N 41°11' W 008°42'0 0.0
2018-Jun-12 14:30N 41°11' W 008°42'0 0.0
2018-Jun-12 14:00N 41°11' W 008°42'0 0.0
2018-Jun-12 13:30N 41°11' W 008°42'0 0.0
2018-Jun-12 13:00N 41°11' W 008°42'0 0.0
2018-Jun-12 12:30N 41°11' W 008°42'0 0.0
2018-Jun-12 12:00N 41°11' W 008°42'0 0.0
2018-Jun-12 11:30N 41°11' W 008°42'0 0.0
2018-Jun-12 11:01N 41°11' W 008°42'0 0.0
2018-Jun-12 10:30N 41°11' W 008°42'0 0.0
2018-Jun-12 10:00N 41°11' W 008°42'0 0.0
2018-Jun-12 09:30N 41°11' W 008°42'0 0.0
2018-Jun-12 09:00N 41°11' W 008°42'0 0.0
2018-Jun-12 08:30N 41°11' W 008°42'0 0.0
2018-Jun-12 08:00N 41°11' W 008°42'0 0.0
2018-Jun-12 07:30N 41°11' W 008°42'0 0.0
2018-Jun-12 07:01N 41°11' W 008°42'0 0.0
2018-Jun-12 06:30N 41°11' W 008°42'0 0.0
2018-Jun-12 06:00N 41°11' W 008°42'0 0.0
2018-Jun-12 05:30N 41°11' W 008°42'0 0.0
2018-Jun-12 05:00N 41°11' W 008°42'0 0.0
2018-Jun-12 04:30N 41°11' W 008°42'0 0.0
2018-Jun-12 04:00N 41°11' W 008°42'0 0.0
2018-Jun-12 03:30N 41°11' W 008°42'0 0.0
2018-Jun-12 03:00N 41°11' W 008°42'0 0.0
2018-Jun-12 02:30N 41°11' W 008°42'0 0.0
2018-Jun-12 02:00N 41°11' W 008°42'0 0.0
2018-Jun-12 01:30N 41°11' W 008°42'0 0.0
2018-Jun-12 01:00N 41°11' W 008°42'0 0.0
2018-Jun-12 00:30N 41°11' W 008°42'0 0.0
2018-Jun-12 00:00N 41°11' W 008°42'0 0.0
2018-Jun-11 23:30N 41°11' W 008°42'0 0.0
2018-Jun-11 23:00N 41°11' W 008°42'0 0.0
2018-Jun-11 22:30N 41°11' W 008°42'0 0.0
2018-Jun-11 22:00N 41°11' W 008°42'1 2.4
2018-Jun-11 21:31N 41°10' W 008°42'3 6.3
2018-Jun-11 21:00N 41°07' W 008°44'11411.8
2018-Jun-11 11:19N 39°31' W 010°04'614.4
2018-Jun-11 10:53N 39°26' W 010°09'614.1
2018-Jun-11 10:27N 39°20' W 010°13'  
Track history (hours):
 
Tides and Currents Weather Stations Pressure Air Temp Water Temp Dewpoint Dewpoint Depression Visibility Wind Speed Wind Dir Waves Ship Positions

Pocahontas

Last reported at 2018-Jun-16 19:51 UTC. Time now 2018-Jun-24 18:55 UTC.
Position N 27°04' W 015°47'.

Length 161 m; draft 7.3 m.

Type: Cargo ship. MMSI: 636018353.

Date/timePositionNaut miles runAvg speedWind from/ knotsBaromVisibWave heightAir tempDewpointWater temp
2018-Jun-16 19:51N 27°04' W 015°47'514.6
2018-Jun-16 19:30N 27°08' W 015°45'714.5
2018-Jun-16 19:00N 27°15' W 015°41'714.5
2018-Jun-16 18:30N 27°21' W 015°37'815.0
2018-Jun-16 18:00N 27°28' W 015°32'1614.6
2018-Jun-16 16:53N 27°42' W 015°23'514.3
2018-Jun-16 16:31N 27°46' W 015°20'714.5
2018-Jun-16 16:00N 27°53' W 015°18'815.2
2018-Jun-16 15:30N 28°01' W 015°18'714.3
2018-Jun-16 14:59N 28°07' W 015°23'2 4.4
2018-Jun-16 14:27N 28°08' W 015°25'0 0.0
2018-Jun-16 13:57N 28°08' W 015°25'0 0.0
2018-Jun-16 13:29N 28°08' W 015°25'0 0.0
2018-Jun-16 13:00N 28°08' W 015°25'0 0.0
2018-Jun-16 12:30N 28°08' W 015°25'0 0.0
2018-Jun-16 12:00N 28°08' W 015°25'0 0.0
2018-Jun-16 11:28N 28°08' W 015°25'1 1.7
2018-Jun-16 11:00N 28°07' W 015°25'3 6.0
2018-Jun-16 10:30N 28°09' W 015°22'510.3
2018-Jun-16 10:00N 28°14' W 015°19'510.1
2018-Jun-16 09:30N 28°18' W 015°17'611.6
2018-Jun-16 09:01N 28°23' W 015°14'814.5
2018-Jun-16 08:29N 28°30' W 015°11'714.5
2018-Jun-16 08:00N 28°37' W 015°07'814.8
2018-Jun-16 07:30N 28°43' W 015°03'714.8
2018-Jun-16 07:00N 28°50' W 014°60'714.9
2018-Jun-16 06:30N 28°57' W 014°56'714.7
2018-Jun-16 06:00N 29°03' W 014°52'714.4
2018-Jun-16 05:30N 29°10' W 014°49'714.3
2018-Jun-16 04:59N 29°17' W 014°45'714.3
2018-Jun-16 04:28N 29°23' W 014°42'614.0
2018-Jun-16 04:00N 29°29' W 014°39'914.3
2018-Jun-16 03:22N 29°37' W 014°34'614.6
2018-Jun-16 02:56N 29°43' W 014°31'1114.4
2018-Jun-16 02:09N 29°53' W 014°25'48710.9
2018-Jun-14 05:25N 37°13' W 010°14'613.5
2018-Jun-14 05:00N 37°18' W 010°11'713.4
2018-Jun-14 04:30N 37°24' W 010°07'713.6
2018-Jun-14 03:57N 37°31' W 010°03'2013.9
2018-Jun-14 02:31N 37°50' W 009°53'613.7
2018-Jun-14 02:03N 37°55' W 009°50'113.6
2018-Jun-14 01:59N 37°56' W 009°49'713.3
2018-Jun-14 01:29N 38°01' W 009°45'713.9
2018-Jun-14 01:00N 38°07' W 009°40'714.0
2018-Jun-14 00:30N 38°13' W 009°36'714.1
2018-Jun-14 00:00N 38°20' W 009°33'713.9
2018-Jun-13 23:31N 38°26' W 009°29'714.2
2018-Jun-13 23:01N 38°33' W 009°25'713.6
2018-Jun-13 22:30N 38°39' W 009°21'611.7
2018-Jun-13 22:00N 38°41' W 009°14'5 9.9
2018-Jun-13 21:30N 38°42' W 009°08'1 1.1
2018-Jun-13 20:21N 38°43' W 009°07'0 0.0
2018-Jun-13 20:00N 38°43' W 009°07'0 0.0
2018-Jun-13 19:30N 38°43' W 009°07'0 0.0
2018-Jun-13 19:00N 38°43' W 009°07'0 0.0
2018-Jun-13 18:30N 38°43' W 009°07'0 0.0
2018-Jun-13 18:00N 38°43' W 009°07'0 0.0
2018-Jun-13 17:30N 38°43' W 009°07'0 0.0
2018-Jun-13 17:00N 38°43' W 009°07'0 0.0
2018-Jun-13 16:30N 38°43' W 009°07'0 0.0
2018-Jun-13 16:00N 38°43' W 009°07'0 0.0
2018-Jun-13 15:30N 38°43' W 009°07'0 0.0
2018-Jun-13 15:00N 38°43' W 009°07'0 0.0
2018-Jun-13 14:30N 38°43' W 009°07'0 0.0
2018-Jun-13 14:00N 38°43' W 009°07'0 0.0
2018-Jun-13 13:30N 38°43' W 009°07'0 0.0
2018-Jun-13 12:59N 38°43' W 009°07'0 0.0
2018-Jun-13 12:30N 38°43' W 009°07'0 0.0
2018-Jun-13 12:00N 38°43' W 009°07'0 0.0
2018-Jun-13 11:18N 38°43' W 009°07'0 0.0
2018-Jun-13 10:57N 38°43' W 009°07'0 0.0
2018-Jun-13 10:30N 38°43' W 009°07'0 0.0
2018-Jun-13 10:00N 38°43' W 009°07'0 0.0
2018-Jun-13 09:30N 38°43' W 009°07'0 0.0
2018-Jun-13 09:00N 38°43' W 009°07'0 0.0
2018-Jun-13 08:29N 38°43' W 009°07'0 0.0
2018-Jun-13 07:59N 38°43' W 009°07'0 0.1
2018-Jun-13 07:30N 38°43' W 009°07'0 0.5
2018-Jun-13 07:00N 38°43' W 009°07'2 4.0
2018-Jun-13 06:30N 38°42' W 009°09'4 7.8
2018-Jun-13 06:00N 38°41' W 009°14'3 6.5
2018-Jun-13 05:30N 38°41' W 009°18'5 9.6
2018-Jun-13 05:00N 38°37' W 009°22'714.1
2018-Jun-13 04:30N 38°36' W 009°31'816.1
2018-Jun-13 04:00N 38°36' W 009°42'816.1
2018-Jun-13 03:30N 38°35' W 009°52'815.7
2018-Jun-13 02:59N 38°36' W 010°02'916.8
2018-Jun-13 02:26N 38°45' W 010°05'817.0
2018-Jun-13 01:57N 38°53' W 010°04'917.1
2018-Jun-13 01:26N 39°01' W 010°00'717.1
2018-Jun-13 01:00N 39°08' W 009°57'12416.6
2018-Jun-12 17:32N 41°01' W 008°48'017.2
2018-Jun-12 17:30N 41°01' W 008°48'815.4
2018-Jun-12 17:01N 41°08' W 008°43'4 7.0
2018-Jun-12 16:30N 41°11' W 008°42'0 0.0
2018-Jun-12 16:00N 41°11' W 008°42'0 0.0
2018-Jun-12 15:30N 41°11' W 008°42'0 0.0
2018-Jun-12 15:00N 41°11' W 008°42'0 0.0
2018-Jun-12 14:30N 41°11' W 008°42'0 0.0
2018-Jun-12 14:00N 41°11' W 008°42'0 0.0
2018-Jun-12 13:30N 41°11' W 008°42'0 0.0
2018-Jun-12 13:00N 41°11' W 008°42'0 0.0
2018-Jun-12 12:30N 41°11' W 008°42'0 0.0
2018-Jun-12 12:00N 41°11' W 008°42'0 0.0
2018-Jun-12 11:30N 41°11' W 008°42'0 0.0
2018-Jun-12 11:01N 41°11' W 008°42'0 0.0
2018-Jun-12 10:30N 41°11' W 008°42'0 0.0
2018-Jun-12 10:00N 41°11' W 008°42'0 0.0
2018-Jun-12 09:30N 41°11' W 008°42'0 0.0
2018-Jun-12 09:00N 41°11' W 008°42'0 0.0
2018-Jun-12 08:30N 41°11' W 008°42'0 0.0
2018-Jun-12 08:00N 41°11' W 008°42'0 0.0
2018-Jun-12 07:30N 41°11' W 008°42'0 0.0
2018-Jun-12 07:01N 41°11' W 008°42'0 0.0
2018-Jun-12 06:30N 41°11' W 008°42'0 0.0
2018-Jun-12 06:00N 41°11' W 008°42'0 0.0
2018-Jun-12 05:30N 41°11' W 008°42'0 0.0
2018-Jun-12 05:00N 41°11' W 008°42'0 0.0
2018-Jun-12 04:30N 41°11' W 008°42'0 0.0
2018-Jun-12 04:00N 41°11' W 008°42'0 0.0
2018-Jun-12 03:30N 41°11' W 008°42'0 0.0
2018-Jun-12 03:00N 41°11' W 008°42'0 0.0
2018-Jun-12 02:30N 41°11' W 008°42'0 0.0
2018-Jun-12 02:00N 41°11' W 008°42'0 0.0
2018-Jun-12 01:30N 41°11' W 008°42'0 0.0
2018-Jun-12 01:00N 41°11' W 008°42'0 0.0
2018-Jun-12 00:30N 41°11' W 008°42'0 0.0
2018-Jun-12 00:00N 41°11' W 008°42'0 0.0
2018-Jun-11 23:30N 41°11' W 008°42'0 0.0
2018-Jun-11 23:00N 41°11' W 008°42'0 0.0
2018-Jun-11 22:30N 41°11' W 008°42'0 0.0
2018-Jun-11 22:00N 41°11' W 008°42'1 2.4
2018-Jun-11 21:31N 41°10' W 008°42'3 6.3
2018-Jun-11 21:00N 41°07' W 008°44'11411.8
2018-Jun-11 11:19N 39°31' W 010°04'614.4
2018-Jun-11 10:53N 39°26' W 010°09'614.1
2018-Jun-11 10:27N 39°20' W 010°13'  

Dump ship's entire track history